Time;durP1;ratioP1;P1;durP2;ratioP2;P2;SDS_P1;SDS_P2;PMS_P1;PMS_P2;Temp;Humidity;BMP_temperature;BMP_pressure;BME280_temperature;BME280_humidity;BME280_pressure;Samples;Min_cycle;Max_cycle;Signal;HPM_P1;HPM_P2
2023/03/27 00:02:12;;;;;;;1.90;0.88;;;;;;;;;;4913831;29;20035;-76
2023/03/27 00:04:40;;;;;;;1.58;0.75;;;;;;;;;;4919760;29;20115;-77
2023/03/27 00:07:06;;;;;;;1.88;0.80;;;;;;;;;;4920550;29;20063;-76
2023/03/27 00:09:32;;;;;;;2.85;0.90;;;;;;;;;;4906842;29;20039;-76
2023/03/27 00:11:59;;;;;;;2.03;0.70;;;;;;;;;;4903032;29;20028;-76
2023/03/27 00:14:25;;;;;;;2.67;0.70;;;;;;;;;;4902588;29;20028;-75
2023/03/27 00:16:51;;;;;;;1.73;0.60;;;;;;;;;;4918234;29;20439;-75
2023/03/27 00:19:18;;;;;;;1.33;0.60;;;;;;;;;;4914715;29;20028;-76
2023/03/27 00:21:44;;;;;;;1.67;0.60;;;;;;;;;;4912514;29;20481;-77
2023/03/27 00:24:10;;;;;;;2.45;0.88;;;;;;;;;;4902969;29;20111;-76
2023/03/27 00:26:39;;;;;;;1.50;0.40;;;;;;;;;;4902579;29;20071;-76
2023/03/27 00:29:05;;;;;;;1.17;0.63;;;;;;;;;;4907968;29;20401;-77
2023/03/27 00:31:31;;;;;;;0.88;0.50;;;;;;;;;;4907130;29;20035;-76
2023/03/27 00:33:57;;;;;;;0.82;0.60;;;;;;;;;;4902622;29;20524;-76
2023/03/27 00:36:23;;;;;;;0.75;0.50;;;;;;;;;;4902439;29;20036;-77
2023/03/27 00:38:51;;;;;;;1.33;0.70;;;;;;;;;;4910278;29;20032;-76
2023/03/27 00:41:18;;;;;;;2.20;0.80;;;;;;;;;;4921316;29;20056;-76
2023/03/27 00:43:44;;;;;;;1.75;0.70;;;;;;;;;;4921644;29;20077;-76
2023/03/27 00:46:30;;;;;;;2.08;0.75;;;;;;;;;;4919927;29;20024;-77
2023/03/27 00:48:57;;;;;;;1.63;0.60;;;;;;;;;;4909297;29;20072;-76
2023/03/27 00:51:25;;;;;;;1.50;0.90;;;;;;;;;;4902358;29;20031;-76
2023/03/27 00:53:52;;;;;;;2.58;0.77;;;;;;;;;;4902583;29;20383;-76
2023/03/27 00:56:18;;;;;;;1.95;1.00;;;;;;;;;;4901851;29;20028;-75
2023/03/27 00:59:01;;;;;;;3.17;0.93;;;;;;;;;;4915582;29;20024;-75
2023/03/27 01:01:28;;;;;;;1.05;0.63;;;;;;;;;;4914578;29;20033;-75
2023/03/27 01:03:55;;;;;;;2.60;1.00;;;;;;;;;;4905960;29;20036;-75
2023/03/27 01:06:21;;;;;;;1.52;0.80;;;;;;;;;;4914826;29;20107;-75
2023/03/27 01:08:48;;;;;;;2.00;0.88;;;;;;;;;;4918984;29;20032;-75
2023/03/27 01:11:17;;;;;;;3.38;0.98;;;;;;;;;;4914338;29;20108;-75
2023/03/27 01:13:56;;;;;;;2.70;0.88;;;;;;;;;;4918912;29;20028;-74
2023/03/27 01:16:40;;;;;;;2.60;1.10;;;;;;;;;;4910649;29;20033;-75
2023/03/27 01:19:20;;;;;;;2.20;0.82;;;;;;;;;;4918298;29;20457;-75
2023/03/27 01:22:05;;;;;;;3.17;0.90;;;;;;;;;;4920328;29;20478;-74
2023/03/27 01:24:31;;;;;;;2.45;0.70;;;;;;;;;;4911006;29;20028;-77
2023/03/27 01:27:06;;;;;;;2.33;0.90;;;;;;;;;;4920211;29;20032;-74
2023/03/27 01:29:48;;;;;;;1.40;0.90;;;;;;;;;;4919382;29;20036;-75
2023/03/27 01:32:20;;;;;;;2.53;1.00;;;;;;;;;;4910666;29;20044;-76
2023/03/27 01:35:07;;;;;;;3.35;1.02;;;;;;;;;;4905332;29;20111;-75
2023/03/27 01:37:46;;;;;;;3.40;1.20;;;;;;;;;;4909229;29;20460;-75
2023/03/27 01:40:21;;;;;;;3.08;1.10;;;;;;;;;;4901687;29;20032;-76
2023/03/27 01:42:48;;;;;;;3.22;1.00;;;;;;;;;;4900806;29;20028;-75
2023/03/27 01:45:19;;;;;;;3.45;1.38;;;;;;;;;;4901821;29;20096;-75
2023/03/27 01:47:50;;;;;;;2.22;1.00;;;;;;;;;;4915917;29;20059;-75
2023/03/27 01:50:19;;;;;;;2.22;1.20;;;;;;;;;;4904041;29;20385;-78
2023/03/27 01:52:58;;;;;;;2.20;1.30;;;;;;;;;;4901721;29;20185;-76
2023/03/27 01:55:27;;;;;;;1.85;1.20;;;;;;;;;;4900474;29;20040;-76
2023/03/27 01:57:59;;;;;;;4.75;1.30;;;;;;;;;;4901662;29;20029;-76
2023/03/27 02:00:26;;;;;;;3.78;1.33;;;;;;;;;;4901919;29;20035;-75
2023/03/27 02:03:02;;;;;;;2.90;1.33;;;9.00;99.90;;;;;;4912600;29;20028;-77
2023/03/27 02:05:33;;;;;;;1.73;1.02;;;9.00;99.90;;;;;;4919549;29;20059;-77
2023/03/27 02:08:10;;;;;;;3.78;1.27;;;9.00;99.90;;;;;;4920270;29;20031;-77
2023/03/27 02:10:41;;;;;;;3.38;1.40;;;9.00;99.90;;;;;;4920324;29;20028;-77
2023/03/27 02:13:17;;;;;;;3.28;1.48;;;8.90;99.90;;;;;;4920580;29;20024;-76
2023/03/27 02:15:45;;;;;;;3.53;1.60;;;8.90;99.90;;;;;;4920524;29;20056;-77
2023/03/27 02:18:18;;;;;;;2.50;1.33;;;8.80;99.90;;;;;;4920379;29;20055;-77
2023/03/27 02:20:44;;;;;;;3.83;1.80;;;8.70;99.90;;;;;;4920452;29;20059;-77
2023/03/27 02:23:10;;;;;;;3.05;1.67;;;8.70;99.90;;;;;;4919786;29;20501;-76
2023/03/27 02:25:38;;;;;;;5.40;1.88;;;8.60;99.90;;;;;;4917357;29;20043;-77
2023/03/27 02:28:38;;;;;;;4.03;1.60;;;8.60;99.90;;;;;;4900479;29;20033;-77
2023/03/27 02:31:41;;;;;;;3.17;1.58;;;8.50;99.90;;;;;;4914273;29;20563;-77
2023/03/27 02:34:48;;;;;;;2.10;1.20;;;8.50;99.90;;;;;;4923250;29;20080;-77
2023/03/27 02:37:25;;;;;;;3.97;1.30;;;8.50;99.90;;;;;;4906545;29;20067;-77
2023/03/27 02:39:59;;;;;;;2.63;1.33;;;8.50;99.90;;;;;;4906493;29;20028;-78
2023/03/27 02:42:51;;;;;;;3.42;1.38;;;8.50;99.90;;;;;;4904743;29;20025;-78
2023/03/27 02:45:39;;;;;;;3.58;1.45;;;8.60;99.90;;;;;;4911606;29;20031;-78
2023/03/27 02:48:27;;;;;;;6.13;1.85;;;8.60;99.90;;;;;;4915897;29;20043;-77
2023/03/27 02:51:01;;;;;;;4.90;1.45;;;8.60;99.90;;;;;;4903942;29;20534;-77
2023/03/27 02:53:31;;;;;;;3.03;1.48;;;8.60;99.90;;;;;;4913163;29;20036;-77
2023/03/27 02:56:00;;;;;;;4.10;1.48;;;8.60;99.90;;;;;;4904413;29;20096;-77
2023/03/27 02:58:51;;;;;;;6.63;2.05;;;8.70;99.90;;;;;;4904580;29;20017;-76
2023/03/27 03:01:19;;;;;;;3.20;1.40;;;8.70;99.90;;;;;;4903968;29;20021;-76
2023/03/27 03:03:53;;;;;;;5.20;1.80;;;8.70;99.90;;;;;;4913984;29;20076;-75
2023/03/27 03:06:21;;;;;;;4.07;1.83;;;8.70;99.90;;;;;;4912041;29;20083;-76
2023/03/27 03:08:48;;;;;;;3.47;1.60;;;8.70;99.90;;;;;;4922448;29;20111;-75
2023/03/27 03:11:14;;;;;;;4.15;1.80;;;8.70;99.90;;;;;;4921785;29;20119;-74
2023/03/27 03:13:40;;;;;;;6.78;2.00;;;8.70;99.90;;;;;;4922778;29;20505;-75
2023/03/27 03:16:07;;;;;;;5.05;1.67;;;8.70;99.90;;;;;;4916705;29;20032;-75
2023/03/27 03:18:33;;;;;;;5.40;1.70;;;8.60;99.90;;;;;;4922472;29;20048;-75
2023/03/27 03:20:59;;;;;;;3.70;1.67;;;8.60;99.90;;;;;;4922823;29;20039;-75
2023/03/27 03:23:25;;;;;;;6.40;1.83;;;8.60;99.90;;;;;;4922489;29;20489;-76
2023/03/27 03:25:55;;;;;;;2.30;1.40;;;8.60;99.90;;;;;;4922727;29;20446;-75
2023/03/27 03:28:24;;;;;;;5.80;1.58;;;8.50;99.90;;;;;;4922510;29;20069;-76
2023/03/27 03:30:51;;;;;;;6.60;1.60;;;8.60;99.90;;;;;;4914248;29;20074;-75
2023/03/27 03:33:18;;;;;;;3.80;1.48;;;8.60;99.90;;;;;;4908456;29;20100;-75
2023/03/27 03:35:49;;;;;;;5.97;1.70;;;8.50;99.90;;;;;;4922204;29;20044;-75
2023/03/27 03:38:24;;;;;;;4.35;1.52;;;8.50;99.90;;;;;;4920843;29;20028;-77
2023/03/27 03:40:54;;;;;;;3.45;1.52;;;8.40;99.90;;;;;;4919512;29;20028;-78
2023/03/27 03:43:26;;;;;;;4.80;1.80;;;8.40;99.90;;;;;;4922026;29;20028;-77
2023/03/27 03:45:52;;;;;;;5.18;1.70;;;8.30;99.90;;;;;;4920846;29;20040;-77
2023/03/27 03:48:19;;;;;;;2.95;1.63;;;8.30;99.90;;;;;;4915311;29;20517;-77
2023/03/27 03:50:46;;;;;;;4.82;1.83;;;8.30;99.90;;;;;;4920587;29;20038;-77
2023/03/27 03:53:13;;;;;;;4.38;1.77;;;8.30;99.90;;;;;;4922291;29;20047;-78
2023/03/27 03:55:38;;;;;;;4.40;1.77;;;8.30;99.90;;;;;;4921913;29;20119;-77
2023/03/27 03:58:05;;;;;;;5.00;1.90;;;8.30;99.90;;;;;;4922070;29;20060;-77
2023/03/27 04:00:36;;;;;;;4.00;1.80;;;8.30;99.90;;;;;;4921401;29;20025;-77
2023/03/27 04:03:04;;;;;;;2.38;1.50;;;8.40;99.90;;;;;;4920552;29;20028;-77
2023/03/27 04:05:30;;;;;;;3.10;1.67;;;8.30;99.90;;;;;;4913527;29;20029;-76
2023/03/27 04:07:58;;;;;;;5.75;1.80;;;8.30;99.90;;;;;;4913513;29;20449;-76
2023/03/27 04:10:24;;;;;;;4.25;1.70;;;8.20;99.90;;;;;;4914552;29;20162;-75
2023/03/27 04:12:50;;;;;;;3.92;1.50;;;8.30;99.90;;;;;;4921023;29;20031;-76
2023/03/27 04:15:16;;;;;;;4.75;1.60;;;8.30;99.90;;;;;;4921673;29;20488;-77
2023/03/27 04:17:42;;;;;;;4.15;1.58;;;8.40;99.90;;;;;;4920215;29;20100;-76
2023/03/27 04:20:09;;;;;;;3.90;2.00;;;8.50;99.90;;;;;;4920316;29;20083;-76
2023/03/27 04:22:36;;;;;;;4.35;1.77;;;8.40;99.90;;;;;;4907715;29;20390;-75
2023/03/27 04:25:06;;;;;;;5.50;1.73;;;8.50;99.90;;;;;;4902799;29;20024;-74
2023/03/27 04:27:35;;;;;;;4.95;1.50;;;8.50;99.90;;;;;;4902892;29;20028;-76
2023/03/27 04:30:01;;;;;;;5.25;2.10;;;8.40;99.90;;;;;;4903117;29;20088;-75
2023/03/27 04:32:28;;;;;;;5.53;1.90;;;8.40;99.90;;;;;;4910105;29;20539;-76
2023/03/27 04:34:53;;;;;;;4.15;1.90;;;8.40;99.90;;;;;;4920223;29;20032;-76
2023/03/27 04:37:21;;;;;;;3.60;1.65;;;8.30;99.90;;;;;;4921270;29;20047;-76
2023/03/27 04:39:47;;;;;;;4.85;1.60;;;8.30;99.90;;;;;;4902426;29;20025;-77
2023/03/27 04:42:14;;;;;;;3.88;1.52;;;8.30;99.90;;;;;;4902943;29;20400;-76
2023/03/27 04:44:40;;;;;;;6.57;1.80;;;8.20;99.90;;;;;;4902774;29;20024;-76
2023/03/27 04:47:06;;;;;;;4.55;1.70;;;8.20;99.90;;;;;;4914193;29;20103;-76
2023/03/27 04:49:38;;;;;;;3.15;1.50;;;8.20;99.90;;;;;;4914859;29;20036;-76
2023/03/27 04:52:07;;;;;;;4.35;2.00;;;8.20;99.90;;;;;;4901488;29;20128;-77
2023/03/27 04:54:33;;;;;;;4.25;1.60;;;8.20;99.90;;;;;;4901380;29;20029;-75
2023/03/27 04:57:00;;;;;;;3.15;1.60;;;8.20;99.90;;;;;;4902508;29;20036;-78
2023/03/27 04:59:33;;;;;;;5.40;1.75;;;8.20;99.90;;;;;;4902317;29;20029;-75
2023/03/27 05:02:00;;;;;;;8.07;2.15;;;8.30;99.90;;;;;;4901049;29;20116;-75
2023/03/27 05:04:27;;;;;;;2.85;1.45;;;8.30;99.90;;;;;;4901957;29;20032;-76
2023/03/27 05:06:54;;;;;;;2.08;1.27;;;8.30;99.90;;;;;;4901319;29;20042;-76
2023/03/27 05:09:20;;;;;;;3.92;1.80;;;8.30;99.90;;;;;;4910309;29;20028;-74
2023/03/27 05:11:48;;;;;;;4.03;1.50;;;8.20;99.90;;;;;;4915585;29;20130;-74
2023/03/27 05:14:22;;;;;;;2.38;1.42;;;8.20;99.90;;;;;;4915256;29;20029;-75
2023/03/27 05:16:50;;;;;;;;;;;8.20;99.90;;;;;;4908577;29;20028;-75
2023/03/27 05:19:18;;;;;;;2.22;1.38;;;8.20;99.90;;;;;;4905241;29;19958;-75
2023/03/27 05:21:45;;;;;;;5.18;1.55;;;8.20;99.90;;;;;;4920203;29;20034;-76
2023/03/27 05:24:15;;;;;;;3.20;1.70;;;8.20;99.90;;;;;;4920426;29;20048;-76
2023/03/27 05:26:42;;;;;;;5.00;1.52;;;8.20;99.90;;;;;;4920608;29;20032;-75
2023/03/27 05:29:08;;;;;;;3.53;1.42;;;8.10;99.90;;;;;;4913029;29;20031;-75
2023/03/27 05:31:35;;;;;;;3.30;1.73;;;8.20;99.90;;;;;;4902962;29;20397;-75
2023/03/27 05:34:02;;;;;;;3.67;1.73;;;8.10;99.90;;;;;;4909607;29;20115;-75
2023/03/27 05:36:28;;;;;;;2.38;1.40;;;8.10;99.90;;;;;;4905750;29;20084;-75
2023/03/27 05:38:56;;;;;;;2.80;1.50;;;8.10;99.90;;;;;;4910103;29;20083;-75
2023/03/27 05:41:23;;;;;;;4.63;1.45;;;8.10;99.90;;;;;;4917969;29;20024;-77
2023/03/27 05:43:50;;;;;;;4.75;1.70;;;8.00;99.90;;;;;;4920488;29;20028;-75
2023/03/27 05:46:16;;;;;;;5.10;1.85;;;8.00;99.90;;;;;;4918936;29;20052;-75
2023/03/27 05:48:42;;;;;;;7.38;1.85;;;8.00;99.90;;;;;;4915977;29;20083;-76
2023/03/27 05:51:10;;;;;;;5.88;1.75;;;8.00;99.90;;;;;;4918052;29;20058;-76
2023/03/27 05:53:39;;;;;;;3.50;2.05;;;8.00;99.90;;;;;;4919805;29;20115;-76
2023/03/27 05:56:06;;;;;;;5.40;1.92;;;8.00;99.90;;;;;;4919147;29;20409;-76
2023/03/27 05:58:32;;;;;;;4.75;1.85;;;8.00;99.90;;;;;;4909648;29;20032;-75
2023/03/27 06:00:57;;;;;;;2.47;1.70;;;7.90;99.90;;;;;;4907196;29;20032;-76
2023/03/27 06:03:23;;;;;;;4.93;1.88;;;7.90;99.90;;;;;;4901662;29;20044;-78
2023/03/27 06:05:49;;;;;;;5.25;1.63;;;7.90;99.90;;;;;;4903930;29;20512;-76
2023/03/27 06:08:15;;;;;;;3.25;1.60;;;7.90;99.90;;;;;;4905338;29;20035;-77
2023/03/27 06:10:42;;;;;;;4.63;1.90;;;7.90;99.90;;;;;;4905243;29;20028;-75
2023/03/27 06:13:11;;;;;;;7.18;2.22;;;7.80;99.90;;;;;;4904165;29;20119;-76
2023/03/27 06:15:40;;;;;;;4.65;2.00;;;7.80;99.90;;;;;;4903961;29;20108;-76
2023/03/27 06:18:07;;;;;;;8.10;2.20;;;7.80;99.90;;;;;;4904927;29;20450;-77
2023/03/27 06:20:34;;;;;;;4.80;1.98;;;7.80;99.90;;;;;;4904994;29;20028;-76
2023/03/27 06:23:00;;;;;;;3.85;1.80;;;7.80;99.90;;;;;;4915634;29;20100;-76
2023/03/27 06:25:30;;;;;;;4.05;1.70;;;7.70;99.90;;;;;;4920076;29;20035;-76
2023/03/27 06:27:57;;;;;;;4.95;2.10;;;7.70;99.90;;;;;;4924013;29;20057;-77
2023/03/27 06:30:24;;;;;;;4.72;2.13;;;7.80;99.90;;;;;;4920977;29;20028;-76
2023/03/27 06:32:58;;;;;;;5.15;2.05;;;7.80;99.90;;;;;;4923285;29;20503;-76
2023/03/27 06:35:27;;;;;;;5.05;1.85;;;7.80;99.90;;;;;;4904982;29;20025;-77
2023/03/27 06:38:02;;;;;;;6.03;2.20;;;7.80;99.90;;;;;;4904623;29;20036;-76
2023/03/27 06:40:30;;;;;;;3.63;1.95;;;7.90;99.90;;;;;;4910307;29;20047;-76
2023/03/27 06:42:59;;;;;;;6.35;2.33;;;7.90;99.90;;;;;;4907274;29;20389;-76
2023/03/27 06:45:28;;;;;;;4.80;2.00;;;8.00;99.90;;;;;;4922169;29;20420;-76
2023/03/27 06:47:57;;;;;;;3.85;1.90;;;8.00;99.90;;;;;;4917712;29;20056;-76
2023/03/27 06:50:25;;;;;;;3.17;1.80;;;8.10;99.90;;;;;;4922161;29;20028;-75
2023/03/27 06:52:50;;;;;;;6.53;2.33;;;8.10;99.90;;;;;;4922864;29;20039;-76
2023/03/27 06:55:18;;;;;;;5.28;2.20;;;8.10;99.90;;;;;;4923222;29;20048;-75
2023/03/27 06:57:49;;;;;;;4.63;1.98;;;8.10;99.90;;;;;;4919151;29;20406;-75
2023/03/27 07:00:18;;;;;;;7.13;2.33;;;8.10;99.90;;;;;;4907275;29;20021;-76
2023/03/27 07:02:48;;;;;;;6.57;2.65;;;8.10;99.90;;;;;;4916728;29;20114;-76
2023/03/27 07:05:15;;;;;;;5.97;2.47;;;8.20;99.90;;;;;;4914577;29;20021;-76
2023/03/27 07:07:42;;;;;;;5.85;2.70;;;8.20;99.90;;;;;;4914082;29;20042;-76
2023/03/27 07:10:08;;;;;;;4.13;2.50;;;8.20;99.90;;;;;;4913747;29;20071;-76
2023/03/27 07:12:35;;;;;;;5.45;2.83;;;8.30;99.90;;;;;;4918210;29;20028;-76
2023/03/27 07:15:01;;;;;;;5.93;2.42;;;8.30;99.90;;;;;;4912756;29;20024;-76
2023/03/27 07:17:26;;;;;;;5.10;2.40;;;8.30;99.90;;;;;;4912095;29;20036;-76
2023/03/27 07:19:52;;;;;;;7.28;2.40;;;8.30;99.90;;;;;;4912076;29;20413;-77
2023/03/27 07:22:18;;;;;;;7.35;2.63;;;8.40;99.90;;;;;;4911537;29;20020;-77
2023/03/27 07:24:44;;;;;;;6.28;2.60;;;8.40;99.90;;;;;;4914037;29;20032;-76
2023/03/27 07:27:10;;;;;;;6.07;2.50;;;8.40;99.90;;;;;;4912988;29;20040;-77
2023/03/27 07:29:36;;;;;;;5.95;2.55;;;8.50;99.90;;;;;;4911355;29;20071;-76
2023/03/27 07:32:05;;;;;;;8.07;3.08;;;8.60;99.90;;;;;;4903599;29;20029;-76
2023/03/27 07:34:31;;;;;;;8.57;2.80;;;8.60;99.90;;;;;;4908828;29;20031;-75
2023/03/27 07:36:56;;;;;;;4.40;2.30;;;8.70;99.90;;;;;;4904874;29;20044;-75
2023/03/27 07:39:22;;;;;;;4.53;2.55;;;8.70;99.90;;;;;;4921117;29;20024;-75
2023/03/27 07:41:48;;;;;;;5.18;2.42;;;8.70;99.90;;;;;;4910978;29;20024;-76
2023/03/27 07:44:14;;;;;;;8.05;2.65;;;8.70;99.90;;;;;;4921655;29;20044;-76
2023/03/27 07:46:40;;;;;;;5.35;2.40;;;8.80;99.90;;;;;;4918008;29;20047;-71
2023/03/27 07:49:07;;;;;;;4.68;2.42;;;8.90;99.90;;;;;;4920461;29;20052;-71
2023/03/27 07:51:33;;;;;;;4.07;2.20;;;9.00;99.90;;;;;;4916100;29;20040;-73
2023/03/27 07:54:02;;;;;;;4.53;2.40;;;9.00;99.90;;;;;;4916705;29;20028;-73
2023/03/27 07:56:30;;;;;;;5.45;2.25;;;9.00;99.90;;;;;;4916123;29;20454;-72
2023/03/27 07:58:56;;;;;;;4.82;2.08;;;9.00;99.90;;;;;;4921684;29;20020;-71
2023/03/27 08:01:21;;;;;;;4.53;2.30;;;9.10;99.90;;;;;;4921288;29;20504;-70
2023/03/27 08:03:48;;;;;;;5.43;3.17;;;9.10;99.90;;;;;;4920994;29;20052;-70
2023/03/27 08:06:14;;;;;;;5.40;2.47;;;9.10;99.90;;;;;;4921739;29;20028;-70
2023/03/27 08:08:40;;;;;;;5.90;2.80;;;9.10;99.90;;;;;;4915927;29;20600;-70
2023/03/27 08:11:06;;;;;;;7.50;2.35;;;9.20;99.90;;;;;;4919894;29;20107;-71
2023/03/27 08:13:32;;;;;;;5.10;2.40;;;9.20;99.90;;;;;;4907409;29;20081;-69
2023/03/27 08:16:16;;;;;;;5.13;2.47;;;9.30;99.90;;;;;;4901843;29;20021;-71
2023/03/27 08:18:45;;;;;;;4.60;2.20;;;9.30;99.90;;;;;;4900842;29;20032;-70
2023/03/27 08:21:11;;;;;;;6.03;2.50;;;9.30;99.90;;;;;;4901741;29;20446;-75
2023/03/27 08:23:38;;;;;;;6.38;1.95;;;9.40;99.90;;;;;;4902037;29;20427;-71
2023/03/27 08:26:04;;;;;;;5.82;1.98;;;9.40;99.90;;;;;;4909212;29;20036;-73
2023/03/27 08:28:32;;;;;;;5.80;1.80;;;9.40;99.90;;;;;;4905422;29;20626;-72
2023/03/27 08:30:58;;;;;;;4.18;1.52;;;9.40;99.90;;;;;;4901257;29;20036;-72
2023/03/27 08:33:26;;;;;;;5.70;1.90;;;9.50;99.90;;;;;;4909474;29;20033;-73
2023/03/27 08:35:53;;;;;;;5.47;2.00;;;9.50;99.90;;;;;;4919672;29;20409;-74
2023/03/27 08:38:19;;;;;;;3.63;2.00;;;9.50;99.90;;;;;;4912394;29;20024;-72
2023/03/27 08:40:53;;;;;;;4.63;1.77;;;9.50;99.90;;;;;;4920564;29;20060;-72
2023/03/27 08:43:26;;;;;;;3.50;1.80;;;9.50;99.90;;;;;;4918423;29;20082;-73
2023/03/27 08:46:12;;;;;;;3.75;1.63;;;9.60;99.90;;;;;;4917994;29;20092;-74
2023/03/27 08:48:45;;;;;;;4.53;1.67;;;9.60;99.90;;;;;;4913078;29;20063;-73
2023/03/27 08:51:25;;;;;;;4.97;1.63;;;9.70;99.90;;;;;;4920819;29;20058;-71
2023/03/27 08:54:06;;;;;;;4.75;1.40;;;9.70;99.90;;;;;;4917949;29;20032;-68
2023/03/27 08:56:33;;;;;;;4.80;1.40;;;9.60;99.90;;;;;;4914386;29;20044;-68
2023/03/27 08:58:59;;;;;;;2.33;1.00;;;9.70;99.90;;;;;;4916243;29;20026;-69
2023/03/27 09:01:35;;;;;;;2.83;1.30;;;9.70;99.90;;;;;;4914970;29;20485;-67
2023/03/27 09:04:12;;;;;;;3.80;1.55;;;9.70;99.90;;;;;;4918731;29;20040;-70
2023/03/27 09:07:05;;;;;;;3.28;1.33;;;9.80;99.90;;;;;;4886262;29;20040;-68
2023/03/27 09:09:54;;;;;;;3.63;1.17;;;9.80;99.90;;;;;;4909457;29;20143;-68
2023/03/27 09:12:41;;;;;;;3.60;1.20;;;9.80;99.90;;;;;;4917311;29;20036;-68
2023/03/27 09:15:20;;;;;;;1.83;1.15;;;9.90;99.90;;;;;;4918539;29;20028;-69
2023/03/27 09:18:01;;;;;;;2.97;1.13;;;9.90;99.90;;;;;;4918686;29;20127;-68
2023/03/27 09:20:37;;;;;;;2.67;1.20;;;10.00;99.90;;;;;;4915703;29;20021;-70
2023/03/27 09:23:54;;;;;;;5.90;1.30;;;10.10;99.90;;;;;;4901558;29;20068;-70
2023/03/27 09:26:24;;;;;;;4.65;1.23;;;10.10;99.90;;;;;;4900932;29;20476;-71
2023/03/27 09:29:15;;;;;;;2.88;0.77;;;10.10;99.90;;;;;;4920513;29;20053;-71
2023/03/27 09:31:49;;;;;;;0.93;0.55;;;10.10;99.90;;;;;;4919219;29;20024;-69
2023/03/27 09:34:25;;;;;;;1.63;0.70;;;10.10;99.90;;;;;;4908448;29;20024;-69
2023/03/27 09:36:51;;;;;;;2.20;0.57;;;10.20;99.90;;;;;;4918281;29;20045;-68
2023/03/27 09:39:22;;;;;;;1.30;0.70;;;10.20;99.90;;;;;;4914174;29;20481;-70
2023/03/27 09:42:02;;;;;;;2.63;0.80;;;10.20;99.90;;;;;;4923377;29;20029;-69
2023/03/27 09:44:34;;;;;;;1.88;0.70;;;10.30;99.90;;;;;;4922501;29;20063;-71
2023/03/27 09:47:13;;;;;;;3.40;0.60;;;10.30;99.90;;;;;;4923242;29;20052;-73
2023/03/27 09:49:45;;;;;;;2.40;0.47;;;10.40;99.90;;;;;;4920828;29;20076;-70
2023/03/27 09:52:32;;;;;;;2.53;0.80;;;10.40;99.90;;;;;;4923620;29;20028;-71
2023/03/27 09:54:58;;;;;;;2.25;0.60;;;10.50;99.90;;;;;;4922637;29;20036;-72
2023/03/27 09:57:32;;;;;;;2.67;0.70;;;10.40;99.90;;;;;;4910427;29;20505;-72
2023/03/27 10:00:26;;;;;;;2.22;0.70;;;10.50;99.90;;;;;;4911287;29;20394;-70
2023/03/27 10:03:16;;;;;;;2.83;0.80;;;10.50;99.90;;;;;;4918572;29;20040;-69
2023/03/27 10:05:42;;;;;;;2.03;0.57;;;10.50;99.90;;;;;;4905174;29;20056;-70
2023/03/27 10:08:39;;;;;;;1.67;0.68;;;10.50;99.90;;;;;;4904430;29;20021;-69
2023/03/27 10:11:06;;;;;;;1.88;0.60;;;10.60;99.90;;;;;;4923286;29;20032;-69
2023/03/27 10:13:33;;;;;;;2.83;0.77;;;10.60;99.90;;;;;;4923232;29;20405;-68
2023/03/27 10:16:01;;;;;;;3.75;0.73;;;10.70;99.90;;;;;;4923490;29;20040;-72
2023/03/27 10:18:30;;;;;;;2.28;0.73;;;10.70;99.90;;;;;;4922965;29;20032;-70
2023/03/27 10:20:58;;;;;;;1.30;0.50;;;10.70;99.90;;;;;;4922097;29;20485;-70
2023/03/27 10:23:46;;;;;;;1.55;0.60;;;10.70;99.90;;;;;;4923125;29;20039;-70
2023/03/27 10:26:20;;;;;;;2.30;0.80;;;10.70;99.90;;;;;;4923392;29;20032;-68
2023/03/27 10:28:47;;;;;;;2.13;0.55;;;10.70;99.90;;;;;;4906220;29;20048;-68
2023/03/27 10:31:36;;;;;;;2.58;0.70;;;10.70;99.90;;;;;;4903328;29;20044;-67
2023/03/27 10:34:05;;;;;;;1.77;0.63;;;10.80;99.90;;;;;;4913551;29;20139;-66
2023/03/27 10:36:33;;;;;;;2.13;0.60;;;10.80;99.90;;;;;;4913954;29;20036;-68
2023/03/27 10:39:11;;;;;;;2.13;0.60;;;10.80;99.90;;;;;;4917667;29;20024;-68
2023/03/27 10:41:38;;;;;;;1.10;0.50;;;10.90;99.90;;;;;;4918075;29;20032;-68
2023/03/27 10:44:12;;;;;;;1.77;0.70;;;10.90;99.90;;;;;;4913789;29;20045;-68
2023/03/27 10:46:39;;;;;;;1.02;0.70;;;11.00;99.90;;;;;;4919084;29;20032;-68
2023/03/27 10:49:32;;;;;;;2.28;0.63;;;11.00;99.90;;;;;;4920185;29;20056;-67
2023/03/27 10:52:07;;;;;;;2.35;0.70;;;11.00;99.90;;;;;;4911860;29;20397;-68
2023/03/27 10:54:53;;;;;;;0.90;0.52;;;11.00;99.90;;;;;;4922850;29;20032;-69
2023/03/27 10:57:33;;;;;;;2.70;0.65;;;11.00;99.90;;;;;;4915695;29;20040;-68
2023/03/27 11:00:12;;;;;;;2.15;0.70;;;11.10;99.90;;;;;;4921581;29;20028;-68
2023/03/27 11:03:09;;;;;;;1.00;0.55;;;11.20;99.90;;;;;;4922669;29;20016;-68
2023/03/27 11:05:38;;;;;;;2.03;0.60;;;11.20;99.90;;;;;;4922674;29;20079;-68
2023/03/27 11:08:22;;;;;;;0.95;0.50;;;11.30;99.90;;;;;;4922397;29;20108;-67
2023/03/27 11:10:49;;;;;;;1.80;0.52;;;11.40;99.90;;;;;;4917066;29;20036;-68
2023/03/27 11:13:33;;;;;;;1.30;0.50;;;11.40;99.90;;;;;;4912733;29;20520;-69
2023/03/27 11:16:24;;;;;;;1.25;0.55;;;11.40;99.90;;;;;;4917044;29;20043;-68
2023/03/27 11:19:00;;;;;;;1.73;0.80;;;11.30;99.90;;;;;;4920013;29;20604;-68
2023/03/27 11:21:54;;;;;;;1.45;0.68;;;11.40;99.90;;;;;;4919358;29;20032;-68
2023/03/27 11:24:49;;;;;;;2.25;0.70;;;11.60;99.90;;;;;;4918052;29;20108;-67
2023/03/27 11:27:29;;;;;;;2.38;0.60;;;11.60;99.90;;;;;;4913466;29;20036;-67
2023/03/27 11:30:16;;;;;;;0.88;0.60;;;11.60;99.90;;;;;;4915117;29;20036;-68
2023/03/27 11:33:14;;;;;;;1.55;0.60;;;11.60;99.90;;;;;;4907930;29;20023;-70
2023/03/27 11:35:48;;;;;;;1.33;0.60;;;11.60;99.90;;;;;;4914654;29;20112;-68
2023/03/27 11:38:19;;;;;;;2.00;0.70;;;11.60;99.90;;;;;;4903079;29;20585;-69
2023/03/27 11:40:48;;;;;;;1.75;0.65;;;11.70;99.90;;;;;;4909008;29;20033;-68
2023/03/27 11:43:16;;;;;;;2.22;0.70;;;11.70;99.90;;;;;;4914028;29;20025;-69
2023/03/27 11:46:01;;;;;;;1.63;0.70;;;11.80;99.90;;;;;;4910246;29;20037;-68
2023/03/27 11:48:39;;;;;;;2.63;0.88;;;11.80;99.90;;;;;;4917371;29;20048;-66
2023/03/27 11:51:21;;;;;;;2.22;0.80;;;11.90;99.90;;;;;;4921885;29;20493;-69
2023/03/27 11:53:59;;;;;;;3.15;0.90;;;12.00;99.90;;;;;;4922109;29;20024;-69
2023/03/27 11:56:54;;;;;;;3.00;0.98;;;12.20;99.90;;;;;;4921320;29;20083;-69
2023/03/27 11:59:38;;;;;;;2.97;1.00;;;12.30;99.90;;;;;;4918156;29;20032;-68
2023/03/27 12:02:22;;;;;;;2.83;0.90;;;12.40;99.90;;;;;;4914871;29;20028;-69
2023/03/27 12:05:19;;;;;;;2.92;1.00;;;12.60;99.90;;;;;;4921092;29;20035;-68
2023/03/27 12:08:05;;;;;;;1.45;0.75;;;12.70;99.90;;;;;;4918670;29;20043;-68
2023/03/27 12:10:41;;;;;;;1.70;0.95;;;12.90;99.90;;;;;;4917859;29;20032;-68
2023/03/27 12:13:26;;;;;;;2.90;1.00;;;13.10;99.90;;;;;;4903022;29;20078;-69
2023/03/27 12:16:14;;;;;;;1.70;0.80;;;13.40;99.90;;;;;;4902726;29;20521;-68
2023/03/27 12:18:45;;;;;;;2.25;0.90;;;13.50;99.90;;;;;;4902414;29;20029;-67
2023/03/27 12:21:29;;;;;;;2.35;0.77;;;13.60;99.90;;;;;;4902849;29;20025;-68
2023/03/27 12:24:25;;;;;;;1.88;0.90;;;13.60;99.90;;;;;;4902521;29;20080;-69
2023/03/27 12:27:04;;;;;;;1.67;0.70;;;13.50;99.90;;;;;;4911009;29;20080;-70
2023/03/27 12:30:15;;;;;;;1.63;0.80;;;13.50;99.90;;;;;;4913894;29;20040;-69
2023/03/27 12:32:49;;;;;;;3.08;0.95;;;13.50;99.90;;;;;;4909057;29;20036;-69
2023/03/27 12:35:20;;;;;;;4.43;1.02;;;13.60;99.90;;;;;;4920671;29;20105;-69
2023/03/27 12:38:01;;;;;;;3.03;0.80;;;13.70;99.90;;;;;;4917366;29;20040;-69
2023/03/27 12:40:31;;;;;;;1.30;0.60;;;13.90;99.90;;;;;;4910125;29;20016;-69
2023/03/27 12:43:25;;;;;;;1.95;0.80;;;13.90;99.90;;;;;;4921340;29;20028;-68
2023/03/27 12:46:13;;;;;;;1.70;0.60;;;14.00;99.90;;;;;;4921414;29;20020;-69
2023/03/27 12:49:07;;;;;;;3.25;0.57;;;14.10;99.90;;;;;;4913445;29;20126;-68
2023/03/27 12:51:53;;;;;;;2.67;0.73;;;14.10;99.90;;;;;;4918436;29;20032;-68
2023/03/27 12:54:29;;;;;;;2.60;0.85;;;14.10;99.90;;;;;;4920894;29;20489;-69
2023/03/27 12:57:04;;;;;;;1.48;0.63;;;14.10;99.90;;;;;;4917592;29;20064;-69
2023/03/27 12:59:47;;;;;;;2.92;0.80;;;14.10;99.90;;;;;;4913908;29;20080;-68
2023/03/27 13:02:32;;;;;;;0.75;0.52;;;14.10;99.90;;;;;;4912016;29;20038;-68
2023/03/27 13:05:19;;;;;;;2.78;0.60;;;14.30;99.90;;;;;;4909407;29;20020;-68
2023/03/27 13:08:22;;;;;;;3.95;0.70;;;14.30;99.90;;;;;;4920723;29;20147;-69
2023/03/27 13:11:07;;;;;;;5.00;0.75;;;14.40;99.90;;;;;;4913955;29;20099;-69
2023/03/27 13:14:04;;;;;;;1.52;0.73;;;14.30;99.90;;;;;;4913529;29;20064;-71
2023/03/27 13:16:49;;;;;;;1.70;0.65;;;14.30;99.90;;;;;;4912185;29;20079;-69
2023/03/27 13:19:26;;;;;;;1.48;0.45;;;14.30;99.90;;;;;;4913542;29;20420;-69
2023/03/27 13:21:51;;;;;;;1.85;0.60;;;14.40;99.90;;;;;;4915317;29;20425;-69
2023/03/27 13:24:35;;;;;;;3.15;0.80;;;14.50;99.90;;;;;;4920119;29;20024;-70
2023/03/27 13:27:20;;;;;;;3.90;0.80;;;14.50;99.90;;;;;;4914858;29;20100;-70
2023/03/27 13:29:50;;;;;;;2.72;0.70;;;14.50;99.90;;;;;;4901659;29;20036;-69
2023/03/27 13:32:37;;;;;;;1.55;0.70;;;14.60;99.90;;;;;;4908462;29;20036;-68
2023/03/27 13:35:19;;;;;;;2.42;0.85;;;14.70;99.90;;;;;;4919197;29;20028;-69
2023/03/27 13:37:59;;;;;;;2.88;0.80;;;14.90;99.90;;;;;;4920143;29;20038;-68
2023/03/27 13:40:28;;;;;;;1.60;0.70;;;14.90;93.60;;;;;;4916427;29;20056;-68